Time;durP1;ratioP1;P1;durP2;ratioP2;P2;SDS_P1;SDS_P2;PMS_P1;PMS_P2;Temp;Humidity;BMP_temperature;BMP_pressure;BME280_temperature;BME280_humidity;BME280_pressure;Samples;Min_cycle;Max_cycle;Signal;HPM_P1;HPM_P2
2022/06/12 00:00:40;;;;;;;4.65;3.50;;;;;;;21.86;75.34;94425.94;5112663;28;20187;-78
2022/06/12 00:03:10;;;;;;;5.32;3.78;;;;;;;21.86;75.23;94429.34;5096257;28;20201;-76
2022/06/12 00:05:40;;;;;;;4.72;3.85;;;;;;;21.82;75.61;94428.16;5091573;28;20645;-77
2022/06/12 00:08:08;;;;;;;8.40;4.00;;;;;;;21.78;75.67;94413.97;5091277;28;20190;-76
2022/06/12 00:10:37;;;;;;;5.80;3.97;;;;;;;21.83;75.73;94424.56;5091254;28;20197;-78
2022/06/12 00:13:05;;;;;;;8.73;3.92;;;;;;;21.77;75.80;94413.19;5109302;28;20225;-77
2022/06/12 00:15:32;;;;;;;4.07;3.65;;;;;;;21.86;75.85;94420.72;5115845;27;20196;-78
2022/06/12 00:18:00;;;;;;;4.88;3.90;;;;;;;21.82;75.84;94419.56;5132094;27;20196;-79
2022/06/12 00:20:28;;;;;;;5.68;3.90;;;;;;;21.84;76.10;94420.13;5132497;27;20200;-79
2022/06/12 00:22:56;;;;;;;3.60;3.00;;;;;;;21.84;76.04;94418.31;5132227;27;20267;-79
2022/06/12 00:25:28;;;;;;;6.25;3.83;;;;;;;21.83;76.08;94421.16;5132353;27;20191;-79
2022/06/12 00:27:54;;;;;;;5.70;3.47;;;;;;;21.83;76.23;94421.94;5113166;27;20180;-78
2022/06/12 00:30:25;;;;;;;5.47;3.67;;;;;;;21.83;76.36;94423.75;5112440;27;20181;-78
2022/06/12 00:32:52;;;;;;;4.60;4.07;;;;;;;21.81;76.30;94421.38;5111668;28;20236;-76
2022/06/12 00:35:23;;;;;;;5.95;3.83;;;;;;;21.82;76.56;94419.56;5120728;27;20651;-76
2022/06/12 00:37:50;;;;;;;5.38;3.55;;;;;;;21.81;76.64;94415.38;5132047;27;20718;-80
2022/06/12 00:40:18;;;;;;;7.28;4.07;;;;;;;21.82;76.63;94420.34;5131495;27;20234;-79
2022/06/12 00:42:47;;;;;;;4.70;3.72;;;;;;;21.82;76.83;94422.97;5112385;27;20208;-78
2022/06/12 00:45:35;;;;;;;6.20;3.80;;;;;;;21.76;76.83;94408.19;5111134;28;20575;-75
2022/06/12 00:48:05;;;;;;;11.80;4.25;;;;;;;21.82;77.11;94417.75;5110864;28;20243;-75
2022/06/12 00:50:36;;;;;;;6.18;3.90;;;;;;;21.82;77.07;94422.16;5111143;28;20196;-76
2022/06/12 00:53:05;;;;;;;4.40;3.78;;;;;;;21.82;77.05;94424.78;5126854;27;20215;-76
2022/06/12 00:55:39;;;;;;;7.07;3.70;;;;;;;21.81;77.33;94421.38;5128538;27;20276;-76
2022/06/12 00:58:11;;;;;;;4.07;3.40;;;;;;;21.81;77.16;94421.38;5131145;27;20219;-75
2022/06/12 01:00:39;;;;;;;10.48;3.80;;;;;;;21.82;77.31;94416.97;5131701;27;20279;-79
2022/06/12 01:03:07;;;;;;;4.38;3.97;;;;;;;21.82;77.45;94414.34;5130627;27;20190;-76
2022/06/12 01:08:22;;;;;;;4.25;3.95;;;;;;;21.73;77.03;94401.63;5128731;27;20187;-79
2022/06/12 01:10:51;;;;;;;6.70;3.65;;;;;;;21.81;77.51;94415.38;5130767;27;20191;-78
2022/06/12 01:13:21;;;;;;;4.22;3.83;;;;;;;21.81;77.63;94407.56;5130928;27;20728;-79
2022/06/12 01:15:51;;;;;;;7.82;3.92;;;;;;;21.81;77.51;94404.97;5131752;27;20181;-79
2022/06/12 01:18:22;;;;;;;4.97;4.47;;;;;;;21.73;77.61;94401.63;5129441;27;20196;-79
2022/06/12 01:20:58;;;;;;;6.43;3.90;;;;;;;21.79;77.83;94410.38;5130909;28;20180;-80
2022/06/12 01:24:02;;;;;;;4.55;3.67;;;;;;;21.80;77.65;94404.13;5131299;28;20191;-80
2022/06/12 01:26:54;;;;;;;4.05;3.75;;;;;;;21.74;77.63;94390.19;5130537;28;20191;-78
2022/06/12 01:29:29;;;;;;;7.93;3.40;;;;;;;21.78;77.96;94393.16;5127490;28;20211;-78
2022/06/12 01:32:03;;;;;;;10.00;4.45;;;;;;;21.77;77.95;94384.56;5130933;28;20188;-80
2022/06/12 01:34:38;;;;;;;4.47;4.07;;;;;;;21.75;77.91;94385.78;5131295;28;20224;-80
2022/06/12 01:37:21;;;;;;;4.07;3.42;;;;;;;21.76;77.81;94387.34;5131080;28;20191;-80
2022/06/12 01:39:58;;;;;;;4.40;3.90;;;;;;;21.76;77.79;94382.16;5115407;28;20677;-77
2022/06/12 01:42:33;;;;;;;5.07;3.63;;;;;;;21.75;77.99;94383.16;5110208;28;20184;-79
2022/06/12 01:45:13;;;;;;;4.50;4.10;;;;;;;21.75;78.11;94381.34;5110504;28;20191;-79
2022/06/12 01:47:47;;;;;;;6.72;4.07;;;;;;;21.74;78.04;94390.19;5110674;28;20181;-79
2022/06/12 01:50:19;;;;;;;4.40;3.75;;;;;;;21.74;78.16;94389.41;5111130;28;20188;-79
2022/06/12 01:52:58;;;;;;;5.38;4.03;;;;;;;21.72;78.06;94387.00;5109644;28;20540;-78
2022/06/12 01:55:32;;;;;;;4.82;4.25;;;;;;;21.73;78.00;94399.00;5088427;28;20185;-79
2022/06/12 01:58:06;;;;;;;5.65;3.70;;;;;;;21.73;78.26;94390.41;5105275;28;20186;-79
2022/06/12 02:00:35;;;;;;;4.40;4.00;;;;;;;21.68;78.04;94385.06;5128602;28;20188;-79
2022/06/12 02:03:09;;;;;;;4.32;3.90;;;;;;;21.67;77.99;94383.44;5130632;28;20689;-77
2022/06/12 02:05:43;;;;;;;5.85;3.88;;;;;;;21.70;78.25;94389.03;5130447;28;20673;-78
2022/06/12 02:08:16;;;;;;;4.13;3.72;;;;;;;21.70;78.10;94394.22;5096877;28;20189;-77
2022/06/12 02:10:47;;;;;;;4.00;3.70;;;;;;;21.70;78.27;94399.44;5115171;27;20200;-79
2022/06/12 02:13:18;;;;;;;4.63;4.13;;;;;;;21.67;78.05;94396.44;5113803;28;20232;-79
2022/06/12 02:15:56;;;;;;;4.97;3.88;;;;;;;21.69;78.30;94403.03;5114199;28;20262;-78
2022/06/12 02:18:33;;;;;;;6.75;4.30;;;;;;;21.61;78.32;94385.09;5112166;28;20189;-77
2022/06/12 02:21:06;;;;;;;5.35;4.38;;;;;;;21.68;78.24;94390.25;5114443;27;20177;-77
2022/06/12 02:23:48;;;;;;;4.43;3.90;;;;;;;21.68;78.46;94388.44;5133719;27;20245;-77
2022/06/12 02:26:19;;;;;;;4.40;4.00;;;;;;;21.68;78.27;94387.66;5134041;27;20650;-77
2022/06/12 02:28:50;;;;;;;5.00;3.92;;;;;;;21.67;78.20;94388.66;5134040;27;20185;-77
2022/06/12 02:31:22;;;;;;;5.55;3.83;;;;;;;21.67;78.52;94392.03;5133868;27;20185;-77
2022/06/12 02:33:53;;;;;;;7.47;3.63;;;;;;;21.66;78.47;94387.84;5133735;27;20219;-78
2022/06/12 02:36:24;;;;;;;3.45;3.20;;;;;;;21.64;78.70;94381.28;5133231;27;20651;-77
2022/06/12 02:38:57;;;;;;;4.60;4.20;;;;;;;21.65;78.43;94391.47;5134041;27;20189;-79
2022/06/12 02:41:30;;;;;;;5.72;4.10;;;;;;;21.64;78.72;94389.09;5133862;27;20193;-77
2022/06/12 02:44:03;;;;;;;6.60;4.60;;;;;;;21.60;78.50;94383.50;5131818;27;20184;-78
2022/06/12 02:46:36;;;;;;;4.82;3.80;;;;;;;21.57;78.71;94375.31;5133848;27;20180;-78
2022/06/12 02:49:06;;;;;;;4.20;3.85;;;;;;;21.63;78.69;94393.50;5133475;27;20231;-76
2022/06/12 02:51:39;;;;;;;4.63;4.05;;;;;;;21.64;78.42;94400.28;5133812;27;20562;-77
2022/06/12 02:54:15;;;;;;;7.45;4.07;;;;;;;21.64;78.75;94405.50;5132116;27;20216;-78
2022/06/12 02:56:48;;;;;;;5.20;3.95;;;;;;;21.53;78.61;94396.56;5133801;27;20192;-77
2022/06/12 02:59:27;;;;;;;7.30;4.13;;;;;;;21.64;78.98;94407.31;5133972;27;20192;-78
2022/06/12 03:02:16;;;;;;;6.00;4.10;;;;;;;21.60;78.94;94400.94;5133594;27;20225;-77
2022/06/12 03:04:48;;;;;;;5.03;3.97;;;;;;;21.59;78.67;94402.75;5132097;27;20666;-78
2022/06/12 03:07:16;;;;;;;4.53;4.13;;;;;;;21.62;78.61;94404.09;5133604;27;20651;-79
2022/06/12 03:09:43;;;;;;;9.32;4.97;;;;;;;21.60;78.73;94406.94;5134650;27;20180;-78
2022/06/12 03:12:11;;;;;;;4.30;3.90;;;;;;;21.60;78.63;94406.94;5134081;27;20195;-78
2022/06/12 03:14:38;;;;;;;4.97;3.90;;;;;;;21.61;78.95;94398.09;5132246;27;20299;-78
2022/06/12 03:17:06;;;;;;;4.93;4.10;;;;;;;21.61;78.82;94408.53;5133914;27;20191;-78
2022/06/12 03:19:42;;;;;;;9.95;4.47;;;;;;;21.45;78.80;94385.63;5132976;27;20193;-78
2022/06/12 03:22:18;;;;;;;4.38;3.72;;;;;;;21.61;78.93;94397.31;5132890;27;20279;-78
2022/06/12 03:24:53;;;;;;;4.00;3.70;;;;;;;21.60;78.83;94401.72;5132466;27;20199;-79
2022/06/12 03:27:48;;;;;;;4.20;3.90;;;;;;;21.61;78.89;94407.72;5109159;27;20192;-78
2022/06/12 03:30:19;;;;;;;4.03;3.72;;;;;;;21.60;78.97;94396.53;5113990;27;20193;-78
2022/06/12 03:32:55;;;;;;;4.25;3.58;;;;;;;21.60;78.87;94399.13;5113884;28;20196;-77
2022/06/12 03:35:37;;;;;;;5.82;4.07;;;;;;;21.61;78.80;94399.91;5114609;27;20200;-77
2022/06/12 03:38:11;;;;;;;5.95;4.43;;;;;;;21.59;78.95;94405.34;5113718;28;20189;-77
2022/06/12 03:40:48;;;;;;;6.10;4.75;;;;;;;21.54;78.91;94395.56;5112989;28;20192;-78
2022/06/12 03:43:23;;;;;;;5.15;4.20;;;;;;;21.64;78.92;94408.09;5112930;28;20199;-78
2022/06/12 03:45:58;;;;;;;7.38;4.65;;;;;;;21.68;78.81;94400.66;5113693;27;20648;-76
2022/06/12 03:48:34;;;;;;;4.95;4.55;;;;;;;21.70;78.85;94406.44;5112870;28;20709;-78
2022/06/12 03:51:10;;;;;;;5.57;4.47;;;;;;;21.68;78.57;94396.25;5112762;28;20181;-76
2022/06/12 03:53:45;;;;;;;5.18;4.78;;;;;;;21.76;78.74;94400.38;5112687;28;20201;-77
2022/06/12 03:59:09;;;;;;;5.85;5.13;;;;;;;21.86;78.12;94402.50;5112498;28;20184;-78
2022/06/12 04:01:39;;;;;;;8.10;5.00;;;;;;;21.90;78.24;94409.69;5112564;28;20192;-79
2022/06/12 04:04:08;;;;;;;5.57;4.60;;;;;;;21.90;78.12;94401.06;5111857;28;20189;-79
2022/06/12 04:06:35;;;;;;;5.00;4.60;;;;;;;21.96;77.94;94408.81;5113331;27;20664;-80
2022/06/12 04:09:06;;;;;;;7.68;5.60;;;;;;;21.98;77.78;94406.81;5111854;28;20189;-79
2022/06/12 04:11:39;;;;;;;6.55;4.78;;;;;;;22.05;77.69;94420.53;5112130;28;20193;-76
2022/06/12 04:14:10;;;;;;;5.53;4.82;;;;;;;22.12;77.56;94409.28;5112140;28;20215;-77
2022/06/12 04:16:41;;;;;;;5.40;4.90;;;;;;;22.18;77.24;94411.81;5112883;28;20185;-78
2022/06/12 04:19:15;;;;;;;5.28;4.78;;;;;;;22.16;77.35;94408.66;5131791;27;20188;-78
2022/06/12 04:21:46;;;;;;;5.88;5.38;;;;;;;22.26;77.31;94421.16;5091909;28;20193;-79
2022/06/12 04:24:17;;;;;;;6.50;5.85;;;;;;;22.28;77.28;94427.78;5091771;28;20189;-77
2022/06/12 04:26:50;;;;;;;10.25;5.32;;;;;;;22.27;77.07;94423.56;5115660;27;20192;-79
2022/06/12 04:29:26;;;;;;;6.28;5.78;;;;;;;22.27;77.23;94422.75;5117870;27;20276;-78
2022/06/12 04:31:57;;;;;;;5.82;5.32;;;;;;;22.25;77.32;94415.16;5112371;28;20189;-77
2022/06/12 04:34:28;;;;;;;6.25;5.68;;;;;;;22.27;77.27;94427.97;5112806;27;20213;-78
2022/06/12 04:36:57;;;;;;;5.72;5.15;;;;;;;22.22;77.49;94428.63;5112064;28;20197;-77
2022/06/12 04:39:27;;;;;;;8.40;6.05;;;;;;;22.26;77.29;94427.19;5112910;27;20188;-78
2022/06/12 04:41:55;;;;;;;8.10;5.70;;;;;;;22.23;77.13;94435.41;5111770;28;20200;-78
2022/06/12 04:44:22;;;;;;;6.07;5.47;;;;;;;22.26;76.96;94429.78;5112008;28;20193;-78
2022/06/12 04:46:52;;;;;;;6.15;5.55;;;;;;;22.28;77.06;94429.59;5120914;27;20177;-79
2022/06/12 04:49:22;;;;;;;6.78;5.13;;;;;;;22.30;77.08;94427.53;5129983;27;20676;-79
2022/06/12 04:51:52;;;;;;;6.45;5.80;;;;;;;22.37;76.95;94436.09;5132667;27;20199;-78
2022/06/12 04:54:20;;;;;;;5.65;5.15;;;;;;;22.36;76.71;94420.66;5132375;27;20205;-79
2022/06/12 04:56:49;;;;;;;6.35;5.80;;;;;;;22.54;76.35;94438.91;5119481;27;20192;-78
2022/06/12 04:59:17;;;;;;;6.47;5.88;;;;;;;22.61;76.06;94437.03;5111236;28;20323;-79
2022/06/12 05:01:45;;;;;;;6.03;5.43;;;;;;;22.65;75.67;94440.78;5126171;27;20180;-79
2022/06/12 05:04:13;;;;;;;5.45;4.82;;;;;;;22.69;75.61;94430.72;5132281;27;20195;-79
2022/06/12 05:06:40;;;;;;;6.10;5.50;;;;;;;22.76;75.44;94436.66;5132355;27;20192;-78
2022/06/12 05:09:10;;;;;;;6.13;5.53;;;;;;;22.74;75.58;94423.81;5131663;27;20180;-79
2022/06/12 05:11:37;;;;;;;6.15;5.65;;;;;;;22.90;75.53;94445.94;5129617;27;20199;-78
2022/06/12 05:14:04;;;;;;;5.80;5.22;;;;;;;22.96;75.42;94433.81;5130875;27;20771;-79
2022/06/12 05:16:35;;;;;;;5.70;5.20;;;;;;;23.13;76.33;94449.66;5131278;27;20207;-79
2022/06/12 05:19:03;;;;;;;6.35;5.72;;;;;;;23.22;76.38;94441.28;5131245;27;20685;-79
2022/06/12 05:21:31;;;;;;;8.05;4.38;;;;;;;23.37;77.06;94438.28;5130011;28;20655;-79
2022/06/12 05:23:58;;;;;;;6.22;5.65;;;;;;;23.56;78.88;94436.38;5131341;28;20617;-78
2022/06/12 05:26:28;;;;;;;5.97;5.38;;;;;;;23.73;79.26;94436.56;5131350;28;20180;-77
2022/06/12 05:28:55;;;;;;;5.55;4.93;;;;;;;23.95;79.47;94442.81;5131332;28;20189;-78
2022/06/12 05:31:22;;;;;;;5.00;4.38;;;;;;;24.16;79.18;94445.91;5126575;28;20184;-79
2022/06/12 05:33:49;;;;;;;5.30;4.72;;;;;;;24.31;78.63;94441.00;5117921;28;20184;-78
2022/06/12 05:36:17;;;;;;;5.10;4.60;;;;;;;24.49;78.15;94435.66;5111424;28;20663;-78
2022/06/12 05:38:45;;;;;;;4.95;4.55;;;;;;;24.64;78.01;94443.00;5111765;28;20861;-78
2022/06/12 05:41:13;;;;;;;6.55;4.65;;;;;;;24.74;77.19;94445.03;5111095;28;20195;-78
2022/06/12 05:43:42;;;;;;;4.60;4.18;;;;;;;24.85;76.50;94444.22;5134149;27;20226;-78
2022/06/12 05:46:10;;;;;;;6.32;4.78;;;;;;;24.96;75.57;94453.88;5123168;27;20185;-79
2022/06/12 05:48:37;;;;;;;5.57;5.10;;;;;;;25.00;74.71;94449.75;5115540;27;20228;-78
2022/06/12 05:51:04;;;;;;;5.85;5.35;;;;;;;24.99;73.87;94445.53;5127312;27;20188;-76
2022/06/12 05:53:33;;;;;;;5.32;4.55;;;;;;;25.06;73.43;94448.00;5134935;27;20686;-79
2022/06/12 05:56:01;;;;;;;4.93;4.50;;;;;;;25.02;73.48;94441.66;5128505;27;20669;-76
2022/06/12 05:58:29;;;;;;;5.93;5.32;;;;;;;25.08;73.64;94451.22;5114108;28;20185;-79
2022/06/12 06:00:58;;;;;;;5.40;4.80;;;;;;;25.07;72.93;94451.44;5114321;28;20204;-77
2022/06/12 06:03:26;;;;;;;6.22;5.22;;;;;;;25.06;72.82;94448.00;5114319;28;20192;-79
2022/06/12 06:05:53;;;;;;;5.95;4.80;;;;;;;25.06;72.71;94455.88;5114090;28;20193;-78
2022/06/12 06:08:20;;;;;;;7.50;6.20;;;;;;;25.02;72.32;94452.13;5114314;28;20193;-76
2022/06/12 06:10:47;;;;;;;16.27;5.72;;;;;;;25.08;73.52;94463.47;5114263;28;20197;-79
2022/06/12 06:13:14;;;;;;;24.20;6.40;;;;;;;25.12;74.88;94464.63;5114236;28;20189;-79
2022/06/12 06:15:41;;;;;;;38.35;6.18;;;;;;;25.19;75.30;94467.91;5125943;27;20216;-77
2022/06/12 06:18:10;;;;;;;23.65;6.22;;;;;;;25.27;74.45;94470.94;5134639;27;20188;-78
2022/06/12 06:20:39;;;;;;;21.05;5.78;;;;;;;25.32;74.31;94467.63;5135064;27;20176;-76
2022/06/12 06:23:06;;;;;;;17.23;6.80;;;;;;;25.37;73.88;94478.19;5134117;27;20246;-78
2022/06/12 06:25:34;;;;;;;14.45;5.95;;;;;;;25.33;73.74;94463.97;5133947;27;20554;-77
2022/06/12 06:28:01;;;;;;;27.02;6.72;;;;;;;25.34;73.19;94470.00;5134461;27;20192;-79
2022/06/12 06:30:29;;;;;;;37.97;6.43;;;;;;;25.43;73.21;94477.25;5134103;27;20192;-75
2022/06/12 06:32:57;;;;;;;40.67;7.10;;;;;;;25.46;72.85;94484.63;5134216;27;20199;-77
2022/06/12 06:35:26;;;;;;;24.10;5.47;;;;;;;25.48;72.90;94495.69;5117603;27;20221;-76
2022/06/12 06:37:56;;;;;;;20.13;5.43;;;;;;;25.49;73.10;94493.84;5113845;28;20290;-77
2022/06/12 06:40:27;;;;;;;19.23;6.15;;;;;;;25.50;73.49;94495.44;5113586;28;20536;-79
2022/06/12 06:42:54;;;;;;;15.50;5.50;;;;;;;25.49;73.54;94497.25;5113008;28;20200;-75
2022/06/12 06:48:07;;;;;;;22.38;6.35;;;;;;;25.51;73.60;94497.00;5133901;27;20597;-77
2022/06/12 06:50:36;;;;;;;23.65;7.03;;;;;;;25.45;73.58;94488.28;5133995;27;20191;-77
2022/06/12 06:53:04;;;;;;;27.65;6.78;;;;;;;25.49;73.25;94497.25;5131195;27;20627;-77
2022/06/12 06:55:33;;;;;;;24.23;6.15;;;;;;;25.56;73.38;94502.38;5112790;28;20216;-77
2022/06/12 06:58:01;;;;;;;11.68;5.78;;;;;;;25.60;72.90;94502.66;5110521;28;20185;-77
2022/06/12 07:00:30;;;;;;;10.75;5.70;;;;;;;25.61;72.83;94497.22;5093292;28;20200;-75
2022/06/12 07:02:57;;;;;;;14.68;5.75;;;;;;;25.56;73.05;94484.03;5092504;28;20197;-77
2022/06/12 07:05:25;;;;;;;15.95;6.25;;;;;;;25.67;73.19;94501.50;5092814;28;20560;-79
2022/06/12 07:07:53;;;;;;;14.98;5.00;;;;;;;25.71;72.73;94507.06;5092491;28;20197;-76
2022/06/12 07:10:24;;;;;;;11.95;5.50;;;;;;;25.77;72.58;94503.50;5093077;28;20189;-75
2022/06/12 07:12:52;;;;;;;15.20;6.25;;;;;;;25.76;72.34;94491.41;5098851;28;20191;-76
2022/06/12 07:15:20;;;;;;;12.65;5.55;;;;;;;25.87;71.94;94501.09;5112953;28;20220;-76
2022/06/12 07:17:48;;;;;;;14.43;5.53;;;;;;;25.92;71.53;94501.16;5112753;28;20189;-76
2022/06/12 07:20:20;;;;;;;13.43;5.57;;;;;;;25.94;71.32;94498.28;5112847;28;20187;-76
2022/06/12 07:22:47;;;;;;;11.48;5.68;;;;;;;25.97;71.75;94503.06;5112635;28;20675;-76
2022/06/12 07:25:16;;;;;;;11.60;5.65;;;;;;;25.98;71.65;94500.19;5112728;28;20177;-79
2022/06/12 07:27:44;;;;;;;11.98;5.47;;;;;;;25.99;71.18;94498.38;5112309;28;20687;-76
2022/06/12 07:30:14;;;;;;;11.05;5.55;;;;;;;25.97;71.12;94500.44;5112703;28;20211;-76
2022/06/12 07:32:41;;;;;;;14.68;5.82;;;;;;;26.03;70.89;94507.34;5092070;28;20661;-74
2022/06/12 07:35:09;;;;;;;9.13;5.43;;;;;;;26.03;70.08;94505.50;5091788;28;20225;-76
2022/06/12 07:37:37;;;;;;;15.55;5.97;;;;;;;26.03;70.29;94510.75;5092055;28;20193;-76
2022/06/12 07:40:06;;;;;;;13.20;5.82;;;;;;;26.02;69.85;94513.63;5092247;28;20178;-75
2022/06/12 07:42:34;;;;;;;18.17;6.97;;;;;;;26.01;70.14;94515.44;5108428;27;20187;-76
2022/06/12 07:45:01;;;;;;;14.57;6.22;;;;;;;26.03;70.50;94523.06;5132698;27;20196;-78
2022/06/12 07:47:28;;;;;;;11.45;6.03;;;;;;;26.04;70.95;94514.19;5132460;27;20193;-77
2022/06/12 07:49:55;;;;;;;11.32;6.00;;;;;;;26.06;71.06;94519.97;5130508;27;20185;-76
2022/06/12 07:52:24;;;;;;;16.75;5.93;;;;;;;26.07;70.15;94515.53;5131553;27;20202;-76
2022/06/12 07:54:51;;;;;;;10.10;5.63;;;;;;;26.09;70.72;94522.13;5111770;27;20196;-77
2022/06/12 07:57:18;;;;;;;15.85;5.85;;;;;;;26.13;71.14;94522.44;5111844;28;20189;-80
2022/06/12 07:59:46;;;;;;;16.17;5.90;;;;;;;26.14;70.67;94516.16;5111669;28;20193;-81
2022/06/12 08:02:13;;;;;;;14.20;5.80;;;;;;;26.20;70.85;94525.69;5111894;28;20200;-79
2022/06/12 08:04:40;;;;;;;27.90;6.00;;;;;;;26.23;70.59;94523.41;5111461;28;20189;-79
2022/06/12 08:07:07;;;;;;;16.33;6.07;;;;;;;26.19;69.68;94517.03;5112918;27;20181;-83
2022/06/12 08:09:34;;;;;;;13.27;6.63;;;;;;;26.26;69.00;94520.31;5111862;28;20683;-83
2022/06/12 08:12:02;;;;;;;24.67;6.40;;;;;;;26.26;68.69;94520.31;5111883;28;20193;-79
2022/06/12 08:14:29;;;;;;;17.42;6.00;;;;;;;26.27;69.11;94519.25;5093778;28;20200;-78
2022/06/12 08:16:57;;;;;;;13.38;6.60;;;;;;;26.27;69.11;94518.47;5111299;28;20229;-77
2022/06/12 08:22:09;;;;;;;15.48;7.72;;;;;;;26.28;69.78;94525.28;5126447;27;20200;-89
2022/06/12 08:24:37;;;;;;;10.55;7.65;;;;;;;26.28;69.32;94527.91;5134147;27;20210;-79
2022/06/12 08:27:05;;;;;;;12.70;8.32;;;;;;;26.26;69.40;94532.63;5132300;27;20639;-82
2022/06/12 08:29:33;;;;;;;14.93;8.00;;;;;;;26.24;68.91;94534.66;5133382;27;20203;-87
2022/06/12 08:32:04;;;;;;;21.17;8.73;;;;;;;26.23;69.47;94535.72;5132129;27;20196;-79
2022/06/12 08:34:36;;;;;;;27.75;10.02;;;;;;;26.22;69.92;94532.31;5132155;27;20207;-78
2022/06/12 08:37:07;;;;;;;16.98;9.70;;;;;;;26.22;69.85;94532.31;5131234;27;20216;-79
2022/06/12 08:39:34;;;;;;;15.02;9.40;;;;;;;26.23;70.25;94539.13;5132047;27;20189;-82
2022/06/12 08:42:10;;;;;;;22.00;11.00;;;;;;;26.27;69.76;94536.81;5112127;27;20189;-82
2022/06/12 08:44:47;;;;;;;19.55;11.48;;;;;;;26.33;69.85;94540.31;5111214;28;20204;-79
2022/06/12 08:47:24;;;;;;;21.48;11.70;;;;;;;26.39;69.51;94540.16;5110811;28;20185;-79
2022/06/12 08:49:57;;;;;;;20.35;11.38;;;;;;;26.45;69.59;94541.03;5110841;28;20189;-77
2022/06/12 08:52:30;;;;;;;20.50;11.48;;;;;;;26.48;69.27;94540.56;5129878;27;20184;-78
2022/06/12 08:55:05;;;;;;;18.90;11.95;;;;;;;26.57;69.14;94546.22;5112472;27;20193;-83
2022/06/12 08:57:37;;;;;;;17.85;11.32;;;;;;;26.64;69.11;94557.31;5100228;28;20184;-77
2022/06/12 09:00:08;;;;;;;20.33;10.93;;;;;;;26.66;68.63;94535.06;5110595;28;20660;-81
2022/06/12 09:02:39;;;;;;;16.30;10.95;;;;;;;26.74;68.52;94542.53;5113916;27;20195;-81
2022/06/12 09:05:10;;;;;;;15.40;10.77;;;;;;;26.68;68.11;94540.06;5114564;27;20192;-80
2022/06/12 09:07:44;;;;;;;21.45;10.18;;;;;;;26.78;68.19;94548.09;5110920;28;20200;-76
2022/06/12 09:10:17;;;;;;;14.02;10.00;;;;;;;26.77;68.56;94541.25;5107534;28;20215;-78
2022/06/12 09:12:50;;;;;;;15.30;10.90;;;;;;;26.78;68.80;94545.47;5107277;28;20254;-78
2022/06/12 09:15:25;;;;;;;14.32;10.80;;;;;;;26.79;68.42;94535.75;5107788;28;20308;-77
2022/06/12 09:18:02;;;;;;;17.67;10.02;;;;;;;26.79;68.76;94535.75;5104987;28;20855;-80
2022/06/12 09:20:37;;;;;;;17.05;10.35;;;;;;;26.85;68.49;94547.91;5105301;28;20533;-82
2022/06/12 09:23:14;;;;;;;20.55;9.48;;;;;;;26.87;69.00;94544.00;5106093;28;20211;-80
2022/06/12 09:25:49;;;;;;;15.30;9.25;;;;;;;26.92;69.16;94545.91;5107466;28;20223;-77
2022/06/12 09:28:30;;;;;;;19.48;9.30;;;;;;;26.96;69.76;94545.16;5107621;28;20216;-79
2022/06/12 09:31:01;;;;;;;14.82;8.93;;;;;;;27.04;70.21;94549.22;5105584;28;20193;-80
2022/06/12 09:33:36;;;;;;;14.98;8.95;;;;;;;27.02;70.21;94546.81;5104065;28;20188;-75
2022/06/12 09:36:18;;;;;;;16.50;9.20;;;;;;;27.14;70.18;94556.44;5105689;28;20709;-76
2022/06/12 09:38:59;;;;;;;18.67;9.05;;;;;;;27.12;69.99;94550.66;5105525;28;20188;-77
2022/06/12 09:41:35;;;;;;;19.40;8.60;;;;;;;27.17;69.75;94556.75;5095977;28;20188;-77
2022/06/12 09:44:12;;;;;;;30.85;8.82;;;;;;;27.18;69.58;94558.31;5104655;28;20679;-78
2022/06/12 09:46:48;;;;;;;21.98;7.43;;;;;;;27.14;69.51;94551.97;5104281;28;20812;-78
2022/06/12 09:49:30;;;;;;;22.20;9.45;;;;;;;27.19;69.21;94554.66;5106907;28;20219;-78
2022/06/12 09:52:20;;;;;;;18.42;8.52;;;;;;;27.16;68.95;94551.72;5106862;28;20238;-77
2022/06/12 09:54:55;;;;;;;19.70;8.43;;;;;;;27.17;68.66;94562.00;5107108;28;20651;-76
2022/06/12 09:57:33;;;;;;;17.17;8.05;;;;;;;27.14;68.93;94551.97;5103089;28;20216;-78
2022/06/12 10:00:05;;;;;;;14.77;6.97;;;;;;;27.15;68.88;94550.13;5105337;28;20189;-79
2022/06/12 10:02:37;;;;;;;13.90;7.57;;;;;;;27.10;68.91;94544.84;5108459;28;20280;-85
2022/06/12 10:05:13;;;;;;;14.07;6.88;;;;;;;27.12;68.52;94545.41;5109030;28;20178;-75
2022/06/12 10:07:47;;;;;;;20.80;7.22;;;;;;;27.07;68.40;94546.06;5107009;28;20181;-78
2022/06/12 10:10:23;;;;;;;17.08;7.22;;;;;;;27.04;68.76;94548.41;5105223;28;20198;-77
2022/06/12 10:12:55;;;;;;;18.98;7.20;;;;;;;26.99;69.06;94544.69;5105297;28;20283;-82
2022/06/12 10:15:26;;;;;;;16.42;6.93;;;;;;;26.96;68.94;94541.75;5123161;28;20201;-75
2022/06/12 10:17:59;;;;;;;16.73;6.90;;;;;;;26.91;69.00;94542.47;5109235;28;20201;-79
2022/06/12 10:20:32;;;;;;;15.30;7.13;;;;;;;26.86;69.04;94533.75;5108661;28;20185;-78
2022/06/12 10:23:00;;;;;;;17.30;6.80;;;;;;;26.85;68.88;94532.94;5106378;28;20185;-80
2022/06/12 10:25:33;;;;;;;16.33;6.20;;;;;;;26.83;69.26;94535.03;5106805;28;20185;-75
2022/06/12 10:28:06;;;;;;;19.40;6.88;;;;;;;26.84;68.94;94536.59;5107066;28;20716;-77
2022/06/12 10:30:38;;;;;;;21.20;7.50;;;;;;;26.86;69.28;94539.00;5109903;28;20192;-79
2022/06/12 10:33:22;;;;;;;14.30;6.97;;;;;;;26.89;69.28;94543.75;5109223;27;20185;-77
2022/06/12 10:35:53;;;;;;;24.73;6.40;;;;;;;26.92;69.29;94545.91;5108107;28;20707;-78
2022/06/12 10:38:22;;;;;;;19.48;6.65;;;;;;;26.96;69.54;94544.38;5109381;28;20203;-81
2022/06/12 10:40:54;;;;;;;17.00;7.03;;;;;;;26.99;69.16;94538.66;5109701;28;20188;-80
2022/06/12 10:43:28;;;;;;;14.00;6.00;;;;;;;27.02;69.06;94538.13;5109957;28;20586;-75
2022/06/12 10:46:05;;;;;;;13.38;5.93;;;;;;;27.06;68.37;94538.44;5109446;28;20192;-79
2022/06/12 10:48:35;;;;;;;14.75;5.50;;;;;;;27.07;68.53;94535.56;5110344;27;20224;-81
2022/06/12 10:51:21;;;;;;;13.77;5.85;;;;;;;27.15;68.49;94537.00;5110073;28;20199;-75
2022/06/12 10:53:49;;;;;;;16.88;5.55;;;;;;;27.20;67.73;94537.88;5110554;27;20189;-74
2022/06/12 10:56:23;;;;;;;10.52;5.90;;;;;;;27.27;67.89;94535.84;5110394;28;20216;-82
2022/06/12 10:59:03;;;;;;;14.40;5.07;;;;;;;27.35;67.49;94525.97;5110616;28;20192;-80
2022/06/12 11:01:40;;;;;;;9.32;4.97;;;;;;;27.48;66.98;94530.81;5110733;28;20223;-75
2022/06/12 11:04:25;;;;;;;12.02;4.93;;;;;;;27.59;67.72;94532.53;5109042;28;20189;-82
2022/06/12 11:07:03;;;;;;;9.57;4.97;;;;;;;27.69;67.64;94529.19;5110502;28;20199;-76
2022/06/12 11:09:43;;;;;;;16.25;4.95;;;;;;;27.77;67.57;94518.28;5110590;27;20247;-74
2022/06/12 11:12:26;;;;;;;10.73;4.05;;;;;;;27.94;67.11;94524.22;5117533;27;20195;-76
2022/06/12 17:21:12;;;;;;;12.30;4.03;;;;;;;22.34;78.09;94608.50;5107477;28;20307;-82
2022/06/12 17:23:41;;;;;;;3.90;3.45;;;;;;;22.32;77.64;94587.03;5107177;28;20193;-85
2022/06/12 17:26:11;;;;;;;4.18;3.45;;;;;;;22.42;76.78;94595.19;5106956;28;20207;-85
2022/06/12 17:28:41;;;;;;;3.70;3.40;;;;;;;22.34;76.30;94566.78;5105947;28;20306;-87
2022/06/12 17:31:09;;;;;;;5.68;3.80;;;;;;;22.72;75.67;94604.97;5105655;28;21187;-84
2022/06/12 17:33:37;;;;;;;4.32;3.72;;;;;;;22.66;75.10;94582.34;5104715;28;20185;-82
2022/06/12 17:36:05;;;;;;;5.85;3.78;;;;;;;22.85;74.93;94594.41;5105254;28;20205;-85
2022/06/12 17:38:32;;;;;;;4.53;3.97;;;;;;;22.54;74.55;94545.78;5105635;28;20208;-81
2022/06/12 17:40:59;;;;;;;4.70;3.80;;;;;;;22.70;74.43;94565.25;5105461;28;20688;-83
2022/06/12 17:43:26;;;;;;;5.45;4.05;;;;;;;22.88;73.58;94593.97;5101205;28;20182;-84
2022/06/12 17:45:54;;;;;;;3.90;3.60;;;;;;;22.94;73.59;94594.97;5084624;28;20202;-86
2022/06/12 17:48:24;;;;;;;3.90;3.50;;;;;;;22.77;73.14;94566.00;5085791;28;20193;-82
2022/06/12 17:50:52;;;;;;;4.32;3.35;;;;;;;22.91;73.32;94592.78;5085707;28;20182;-82
2022/06/12 17:53:22;;;;;;;4.68;3.92;;;;;;;22.97;73.07;94602.31;5084397;28;20210;-82
2022/06/12 17:55:51;;;;;;;4.10;3.50;;;;;;;23.00;73.02;94613.13;5085556;28;20266;-86
2022/06/12 17:58:19;;;;;;;4.25;3.50;;;;;;;22.63;72.76;94554.91;5085844;28;20272;-85
2022/06/12 18:00:46;;;;;;;6.32;3.55;;;;;;;22.99;73.06;94611.53;5085248;28;20197;-80
2022/06/12 18:03:14;;;;;;;4.72;4.03;;;;;;;22.88;73.18;94593.97;5086385;28;20192;-82
2022/06/12 18:05:41;;;;;;;6.95;3.72;;;;;;;22.94;73.16;94603.56;5084236;28;20198;-83